Alamota, Kansas
Current Conditions -  °F | °C
As of 7:54 PM on Thursday 18 Dec 2014 (Local Time) from KGCK Reporting Station
Overcast Overcast  
Wind Chill: 28°   Ceiling: 1200
Heat Index: 33°   Visibility: 7mi
Dew Point: 31°   Wind: 6mph
Humidity: 92%   Direction: 170°S
Pressure: 30.14"   Gusts: NA
Location:  38.4812°N, 100.393°W
Report Text: KGCK 190154Z 17005KT 7SM OVC012 01/M01 A3014 RMK AO2 SLP227 T00061006
Loading
Personal Weather Stations






























Interactive Weather Map New forecast layout! Learn more

10-Day Weather Forecast

Advertisements
Track Severe Weather on mobile